sensor_id;sensor_type;location;lat;lon;timestamp;pressure;altitude;pressure_sealevel;temperature;humidity
64644;BME280;51056;50.330;7.914;2024-03-25T00:00:56;99779.22;;;6.58;71.84
64644;BME280;51056;50.330;7.914;2024-03-25T00:04:05;99778.41;;;6.58;71.02
64644;BME280;51056;50.330;7.914;2024-03-25T00:07:27;99784.78;;;6.50;71.26
64644;BME280;51056;50.330;7.914;2024-03-25T00:10:45;99785.63;;;6.51;70.85
64644;BME280;51056;50.330;7.914;2024-03-25T00:13:59;99786.25;;;6.56;70.84
64644;BME280;51056;50.330;7.914;2024-03-25T00:17:16;99794.31;;;6.50;70.81
64644;BME280;51056;50.330;7.914;2024-03-25T00:20:33;99792.13;;;6.60;70.21
64644;BME280;51056;50.330;7.914;2024-03-25T00:23:51;99790.75;;;6.52;70.37
64644;BME280;51056;50.330;7.914;2024-03-25T00:27:14;99795.38;;;6.46;70.38
64644;BME280;51056;50.330;7.914;2024-03-25T00:30:23;99796.03;;;6.51;71.08
64644;BME280;51056;50.330;7.914;2024-03-25T00:33:42;99795.88;;;6.54;70.03
64644;BME280;51056;50.330;7.914;2024-03-25T00:36:58;99796.59;;;6.75;69.73
64644;BME280;51056;50.330;7.914;2024-03-25T00:40:16;99809.19;;;6.65;70.12
64644;BME280;51056;50.330;7.914;2024-03-25T00:43:28;99791.72;;;6.50;69.56
64644;BME280;51056;50.330;7.914;2024-03-25T00:46:42;99803.81;;;6.51;69.34
64644;BME280;51056;50.330;7.914;2024-03-25T00:50:04;99799.06;;;6.42;69.48
64644;BME280;51056;50.330;7.914;2024-03-25T00:53:29;99804.00;;;6.46;69.60
64644;BME280;51056;50.330;7.914;2024-03-25T00:56:49;99817.00;;;6.46;69.42
64644;BME280;51056;50.330;7.914;2024-03-25T01:00:15;99800.72;;;6.43;69.88
64644;BME280;51056;50.330;7.914;2024-03-25T01:03:35;99802.81;;;6.35;68.85
64644;BME280;51056;50.330;7.914;2024-03-25T01:06:59;99797.91;;;6.28;69.54
64644;BME280;51056;50.330;7.914;2024-03-25T01:10:12;99799.91;;;6.23;69.81
64644;BME280;51056;50.330;7.914;2024-03-25T01:13:29;99802.91;;;6.33;70.71
64644;BME280;51056;50.330;7.914;2024-03-25T01:16:56;99804.44;;;5.99;72.04
64644;BME280;51056;50.330;7.914;2024-03-25T01:20:09;99809.91;;;5.93;73.69
64644;BME280;51056;50.330;7.914;2024-03-25T01:23:25;99810.84;;;6.11;73.76
64644;BME280;51056;50.330;7.914;2024-03-25T01:26:43;99803.75;;;6.15;74.43
64644;BME280;51056;50.330;7.914;2024-03-25T01:30:08;99809.03;;;6.13;73.64
64644;BME280;51056;50.330;7.914;2024-03-25T01:33:32;99806.97;;;6.39;75.62
64644;BME280;51056;50.330;7.914;2024-03-25T01:36:59;99803.75;;;6.34;75.33
64644;BME280;51056;50.330;7.914;2024-03-25T01:40:21;99804.66;;;6.33;74.22
64644;BME280;51056;50.330;7.914;2024-03-25T01:43:29;99807.03;;;6.18;72.94
64644;BME280;51056;50.330;7.914;2024-03-25T01:46:50;99803.88;;;5.93;73.05
64644;BME280;51056;50.330;7.914;2024-03-25T01:50:11;99803.09;;;5.91;73.42
64644;BME280;51056;50.330;7.914;2024-03-25T01:53:27;99806.69;;;5.87;73.09
64644;BME280;51056;50.330;7.914;2024-03-25T01:56:48;99805.03;;;5.86;73.28
64644;BME280;51056;50.330;7.914;2024-03-25T02:00:10;99808.91;;;5.96;73.57
64644;BME280;51056;50.330;7.914;2024-03-25T02:03:42;99809.06;;;5.93;73.00
64644;BME280;51056;50.330;7.914;2024-03-25T02:06:54;99811.88;;;5.87;74.03
64644;BME280;51056;50.330;7.914;2024-03-25T02:10:14;99806.78;;;5.65;75.48
64644;BME280;51056;50.330;7.914;2024-03-25T02:13:29;99809.38;;;5.85;76.36
64644;BME280;51056;50.330;7.914;2024-03-25T02:16:48;99810.34;;;5.82;75.71
64644;BME280;51056;50.330;7.914;2024-03-25T02:20:17;99807.41;;;5.90;75.90
64644;BME280;51056;50.330;7.914;2024-03-25T02:23:33;99816.25;;;6.07;76.56
64644;BME280;51056;50.330;7.914;2024-03-25T02:26:52;99823.66;;;5.95;76.70
64644;BME280;51056;50.330;7.914;2024-03-25T02:30:13;99824.03;;;6.25;77.12
64644;BME280;51056;50.330;7.914;2024-03-25T02:33:36;99817.38;;;6.39;75.64
64644;BME280;51056;50.330;7.914;2024-03-25T02:36:57;99826.97;;;6.18;75.35
64644;BME280;51056;50.330;7.914;2024-03-25T02:40:14;99821.22;;;6.11;77.12
64644;BME280;51056;50.330;7.914;2024-03-25T02:43:29;99821.00;;;6.16;76.74
64644;BME280;51056;50.330;7.914;2024-03-25T02:46:52;99809.63;;;6.18;76.52
64644;BME280;51056;50.330;7.914;2024-03-25T02:50:11;99817.28;;;6.21;77.56
64644;BME280;51056;50.330;7.914;2024-03-25T02:53:23;99819.19;;;6.37;77.62
64644;BME280;51056;50.330;7.914;2024-03-25T02:56:39;99824.00;;;6.44;76.17
64644;BME280;51056;50.330;7.914;2024-03-25T02:59:57;99823.72;;;6.32;76.30
64644;BME280;51056;50.330;7.914;2024-03-25T03:03:14;99818.69;;;6.28;75.96
64644;BME280;51056;50.330;7.914;2024-03-25T03:06:24;99830.53;;;6.15;76.48
64644;BME280;51056;50.330;7.914;2024-03-25T03:09:34;99826.06;;;6.38;77.58
64644;BME280;51056;50.330;7.914;2024-03-25T03:12:54;99832.31;;;6.34;78.25
64644;BME280;51056;50.330;7.914;2024-03-25T03:16:17;99831.53;;;6.50;77.94
64644;BME280;51056;50.330;7.914;2024-03-25T03:19:34;99826.56;;;6.46;76.00
64644;BME280;51056;50.330;7.914;2024-03-25T03:23:00;99819.97;;;6.39;75.91
64644;BME280;51056;50.330;7.914;2024-03-25T03:26:23;99828.38;;;6.44;76.16
64644;BME280;51056;50.330;7.914;2024-03-25T03:29:48;99826.56;;;6.46;75.55
64644;BME280;51056;50.330;7.914;2024-03-25T03:33:06;99826.41;;;6.30;74.61
64644;BME280;51056;50.330;7.914;2024-03-25T03:36:20;99820.66;;;6.23;76.08
64644;BME280;51056;50.330;7.914;2024-03-25T03:39:32;99815.25;;;6.28;75.21
64644;BME280;51056;50.330;7.914;2024-03-25T03:42:44;99807.19;;;5.76;73.92
64644;BME280;51056;50.330;7.914;2024-03-25T03:45:53;99810.88;;;5.91;73.98
64644;BME280;51056;50.330;7.914;2024-03-25T03:49:10;99816.56;;;5.99;74.55
64644;BME280;51056;50.330;7.914;2024-03-25T03:52:21;99809.22;;;5.69;73.83
64644;BME280;51056;50.330;7.914;2024-03-25T03:55:33;99824.50;;;5.55;74.37
64644;BME280;51056;50.330;7.914;2024-03-25T03:58:52;99820.56;;;5.46;73.76
64644;BME280;51056;50.330;7.914;2024-03-25T04:02:05;99819.66;;;5.47;73.82
64644;BME280;51056;50.330;7.914;2024-03-25T04:05:22;99826.03;;;5.40;73.99
64644;BME280;51056;50.330;7.914;2024-03-25T04:08:42;99822.31;;;5.46;73.90
64644;BME280;51056;50.330;7.914;2024-03-25T04:11:50;99825.06;;;5.43;73.68
64644;BME280;51056;50.330;7.914;2024-03-25T04:14:58;99826.78;;;5.22;74.45
64644;BME280;51056;50.330;7.914;2024-03-25T04:18:05;99820.03;;;5.18;74.44
64644;BME280;51056;50.330;7.914;2024-03-25T04:21:24;99813.22;;;5.15;75.09
64644;BME280;51056;50.330;7.914;2024-03-25T04:24:31;99817.34;;;4.99;75.18
64644;BME280;51056;50.330;7.914;2024-03-25T04:27:44;99819.28;;;4.94;75.99
64644;BME280;51056;50.330;7.914;2024-03-25T04:30:57;99817.75;;;5.10;75.76
64644;BME280;51056;50.330;7.914;2024-03-25T04:34:04;99819.00;;;5.01;75.82
64644;BME280;51056;50.330;7.914;2024-03-25T04:37:14;99825.00;;;5.02;76.99
64644;BME280;51056;50.330;7.914;2024-03-25T04:40:20;99825.84;;;5.23;77.02
64644;BME280;51056;50.330;7.914;2024-03-25T04:43:24;99832.53;;;5.08;78.17
64644;BME280;51056;50.330;7.914;2024-03-25T04:46:43;99823.09;;;5.27;77.78
64644;BME280;51056;50.330;7.914;2024-03-25T04:49:56;99835.13;;;5.28;77.39
64644;BME280;51056;50.330;7.914;2024-03-25T04:53:05;99826.72;;;5.23;77.88
64644;BME280;51056;50.330;7.914;2024-03-25T04:56:18;99836.44;;;5.18;78.46
64644;BME280;51056;50.330;7.914;2024-03-25T04:59:35;99839.75;;;5.00;79.81
64644;BME280;51056;50.330;7.914;2024-03-25T05:02:45;99852.66;;;5.01;79.80
64644;BME280;51056;50.330;7.914;2024-03-25T05:06:04;99853.09;;;4.90;80.47
64644;BME280;51056;50.330;7.914;2024-03-25T05:09:21;99847.25;;;4.85;80.94
64644;BME280;51056;50.330;7.914;2024-03-25T05:12:31;99849.78;;;4.87;80.53
64644;BME280;51056;50.330;7.914;2024-03-25T05:15:49;99848.69;;;4.93;80.61
64644;BME280;51056;50.330;7.914;2024-03-25T05:19:07;99853.09;;;4.90;80.54
64644;BME280;51056;50.330;7.914;2024-03-25T05:22:27;99856.25;;;4.75;80.65
64644;BME280;51056;50.330;7.914;2024-03-25T05:25:38;99858.25;;;4.69;80.98
64644;BME280;51056;50.330;7.914;2024-03-25T05:28:46;99852.13;;;4.71;81.81
64644;BME280;51056;50.330;7.914;2024-03-25T05:32:07;99860.69;;;4.50;82.11
64644;BME280;51056;50.330;7.914;2024-03-25T05:35:13;99865.53;;;4.59;81.78
64644;BME280;51056;50.330;7.914;2024-03-25T05:38:46;99862.06;;;4.60;82.57
64644;BME280;51056;50.330;7.914;2024-03-25T05:41:51;99865.00;;;4.51;82.49
64644;BME280;51056;50.330;7.914;2024-03-25T05:45:05;99863.13;;;4.54;82.01
64644;BME280;51056;50.330;7.914;2024-03-25T05:48:11;99863.25;;;4.51;82.46
64644;BME280;51056;50.330;7.914;2024-03-25T05:51:20;99867.84;;;4.43;82.78
64644;BME280;51056;50.330;7.914;2024-03-25T05:54:24;99873.34;;;4.35;83.17
64644;BME280;51056;50.330;7.914;2024-03-25T05:57:30;99873.75;;;4.25;84.73
64644;BME280;51056;50.330;7.914;2024-03-25T06:00:35;99875.09;;;4.35;85.08
64644;BME280;51056;50.330;7.914;2024-03-25T06:03:44;99874.28;;;4.33;84.13
64644;BME280;51056;50.330;7.914;2024-03-25T06:07:00;99869.94;;;4.33;84.29
64644;BME280;51056;50.330;7.914;2024-03-25T06:10:12;99867.44;;;4.32;84.57
64644;BME280;51056;50.330;7.914;2024-03-25T06:13:29;99881.13;;;4.34;84.53
64644;BME280;51056;50.330;7.914;2024-03-25T06:16:37;99873.75;;;4.25;85.25
64644;BME280;51056;50.330;7.914;2024-03-25T06:19:49;99868.66;;;4.45;84.91
64644;BME280;51056;50.330;7.914;2024-03-25T06:22:56;99875.06;;;4.58;84.84
64644;BME280;51056;50.330;7.914;2024-03-25T06:26:04;99871.75;;;4.55;85.37
64644;BME280;51056;50.330;7.914;2024-03-25T06:29:17;99873.38;;;4.57;84.62
64644;BME280;51056;50.330;7.914;2024-03-25T06:32:25;99878.22;;;4.66;85.00
64644;BME280;51056;50.330;7.914;2024-03-25T06:36:02;99876.25;;;4.72;85.03
64644;BME280;51056;50.330;7.914;2024-03-25T06:39:10;99874.16;;;4.81;85.08
64644;BME280;51056;50.330;7.914;2024-03-25T06:42:16;99870.00;;;4.77;84.72
64644;BME280;51056;50.330;7.914;2024-03-25T06:45:22;99877.66;;;4.80;85.26
64644;BME280;51056;50.330;7.914;2024-03-25T06:48:28;99875.44;;;4.71;86.09
64644;BME280;51056;50.330;7.914;2024-03-25T06:55:02;99875.78;;;5.06;85.03
64644;BME280;51056;50.330;7.914;2024-03-25T06:58:07;99879.28;;;5.05;84.68
64644;BME280;51056;50.330;7.914;2024-03-25T07:01:12;99880.63;;;5.15;84.43
64644;BME280;51056;50.330;7.914;2024-03-25T07:04:20;99885.94;;;5.32;83.11
64644;BME280;51056;50.330;7.914;2024-03-25T07:07:24;99890.50;;;5.27;81.81
64644;BME280;51056;50.330;7.914;2024-03-25T07:10:27;99897.81;;;5.38;80.10
64644;BME280;51056;50.330;7.914;2024-03-25T07:13:31;99886.84;;;5.31;77.71
64644;BME280;51056;50.330;7.914;2024-03-25T07:16:35;99891.28;;;5.50;78.46
64644;BME280;51056;50.330;7.914;2024-03-25T07:19:39;99888.69;;;5.50;77.85
64644;BME280;51056;50.330;7.914;2024-03-25T07:22:47;99893.56;;;5.37;77.03
64644;BME280;51056;50.330;7.914;2024-03-25T07:25:50;99889.53;;;5.30;76.87
64644;BME280;51056;50.330;7.914;2024-03-25T07:28:54;99886.47;;;5.41;76.85
64644;BME280;51056;50.330;7.914;2024-03-25T07:31:58;99882.00;;;5.44;76.80
64644;BME280;51056;50.330;7.914;2024-03-25T07:35:04;99886.34;;;5.64;76.54
64644;BME280;51056;50.330;7.914;2024-03-25T07:38:09;99892.22;;;5.69;75.59
64644;BME280;51056;50.330;7.914;2024-03-25T07:41:13;99889.09;;;5.81;75.71
64644;BME280;51056;50.330;7.914;2024-03-25T07:44:21;99891.56;;;5.85;75.41
64644;BME280;51056;50.330;7.914;2024-03-25T07:47:29;99891.22;;;5.92;75.16
64644;BME280;51056;50.330;7.914;2024-03-25T07:54:03;99884.50;;;6.27;74.28
64644;BME280;51056;50.330;7.914;2024-03-25T07:57:11;99878.63;;;6.43;73.67
64644;BME280;51056;50.330;7.914;2024-03-25T08:03:44;99881.88;;;6.48;73.26
64644;BME280;51056;50.330;7.914;2024-03-25T08:06:51;99884.22;;;6.15;72.85
64644;BME280;51056;50.330;7.914;2024-03-25T08:09:54;99878.84;;;6.38;72.34
64644;BME280;51056;50.330;7.914;2024-03-25T08:13:02;99872.50;;;6.63;72.68
64644;BME280;51056;50.330;7.914;2024-03-25T08:16:06;99872.44;;;6.83;73.04
64644;BME280;51056;50.330;7.914;2024-03-25T08:19:14;99872.75;;;6.94;72.09
64644;BME280;51056;50.330;7.914;2024-03-25T08:22:19;99882.44;;;6.73;71.76
64644;BME280;51056;50.330;7.914;2024-03-25T08:25:27;99882.97;;;6.80;70.05
64644;BME280;51056;50.330;7.914;2024-03-25T08:28:36;99879.50;;;6.98;69.51
64644;BME280;51056;50.330;7.914;2024-03-25T08:31:43;99877.47;;;7.05;69.60
64644;BME280;51056;50.330;7.914;2024-03-25T08:34:49;99879.59;;;7.14;68.36
64644;BME280;51056;50.330;7.914;2024-03-25T08:37:52;99874.78;;;7.07;68.84
64644;BME280;51056;50.330;7.914;2024-03-25T08:40:56;99888.19;;;7.34;68.36
64644;BME280;51056;50.330;7.914;2024-03-25T08:44:00;99879.47;;;7.35;68.37
64644;BME280;51056;50.330;7.914;2024-03-25T08:47:03;99872.88;;;7.62;68.96
64644;BME280;51056;50.330;7.914;2024-03-25T08:50:07;99878.03;;;7.64;67.56
64644;BME280;51056;50.330;7.914;2024-03-25T08:53:10;99885.31;;;7.57;66.18
64644;BME280;51056;50.330;7.914;2024-03-25T08:56:13;99886.34;;;7.36;66.00
64644;BME280;51056;50.330;7.914;2024-03-25T08:59:16;99877.94;;;7.48;65.70
64644;BME280;51056;50.330;7.914;2024-03-25T09:02:21;99871.97;;;7.81;65.40
64644;BME280;51056;50.330;7.914;2024-03-25T09:05:24;99867.22;;;7.72;65.30
64644;BME280;51056;50.330;7.914;2024-03-25T09:08:28;99868.31;;;7.50;64.22
64644;BME280;51056;50.330;7.914;2024-03-25T09:11:39;99868.94;;;7.38;63.12
64644;BME280;51056;50.330;7.914;2024-03-25T09:14:43;99862.81;;;7.56;63.31
64644;BME280;51056;50.330;7.914;2024-03-25T09:17:46;99857.63;;;7.89;63.26
64644;BME280;51056;50.330;7.914;2024-03-25T09:20:50;99850.22;;;7.82;62.13
64644;BME280;51056;50.330;7.914;2024-03-25T09:23:53;99848.34;;;8.01;62.67
64644;BME280;51056;50.330;7.914;2024-03-25T09:26:58;99845.31;;;7.93;60.83
64644;BME280;51056;50.330;7.914;2024-03-25T09:30:01;99840.41;;;7.87;61.19
64644;BME280;51056;50.330;7.914;2024-03-25T09:33:07;99840.09;;;7.93;60.65
64644;BME280;51056;50.330;7.914;2024-03-25T09:36:10;99837.25;;;8.13;60.11
64644;BME280;51056;50.330;7.914;2024-03-25T09:39:14;99843.47;;;7.95;58.50
64644;BME280;51056;50.330;7.914;2024-03-25T09:42:22;99833.91;;;8.11;59.02
64644;BME280;51056;50.330;7.914;2024-03-25T09:45:50;99830.84;;;8.21;58.59
64644;BME280;51056;50.330;7.914;2024-03-25T09:48:55;99825.72;;;8.35;58.34
64644;BME280;51056;50.330;7.914;2024-03-25T09:51:59;99819.47;;;8.22;57.41
64644;BME280;51056;50.330;7.914;2024-03-25T09:55:02;99817.66;;;8.24;58.12
64644;BME280;51056;50.330;7.914;2024-03-25T09:58:06;99816.28;;;8.16;56.92
64644;BME280;51056;50.330;7.914;2024-03-25T10:01:09;99809.09;;;8.53;57.75
64644;BME280;51056;50.330;7.914;2024-03-25T10:04:12;99800.84;;;8.77;56.98
64644;BME280;51056;50.330;7.914;2024-03-25T10:07:22;99791.78;;;8.84;55.02
64644;BME280;51056;50.330;7.914;2024-03-25T10:10:25;99795.97;;;8.71;53.23
64644;BME280;51056;50.330;7.914;2024-03-25T10:13:28;99788.41;;;8.82;53.45
64644;BME280;51056;50.330;7.914;2024-03-25T10:16:32;99788.38;;;8.98;54.51
64644;BME280;51056;50.330;7.914;2024-03-25T10:19:37;99785.72;;;9.28;53.42
64644;BME280;51056;50.330;7.914;2024-03-25T10:22:46;99777.72;;;9.17;51.32
64644;BME280;51056;50.330;7.914;2024-03-25T10:25:53;99766.75;;;9.26;51.68
64644;BME280;51056;50.330;7.914;2024-03-25T10:29:00;99768.28;;;9.14;51.65
64644;BME280;51056;50.330;7.914;2024-03-25T10:32:04;99766.59;;;8.83;52.23
64644;BME280;51056;50.330;7.914;2024-03-25T10:35:08;99767.31;;;9.45;56.53
64644;BME280;51056;50.330;7.914;2024-03-25T10:38:12;99764.63;;;9.61;54.05
64644;BME280;51056;50.330;7.914;2024-03-25T10:41:22;99757.63;;;9.62;51.10
64644;BME280;51056;50.330;7.914;2024-03-25T10:44:27;99766.88;;;9.82;52.26
64644;BME280;51056;50.330;7.914;2024-03-25T10:47:34;99758.75;;;9.72;52.25
64644;BME280;51056;50.330;7.914;2024-03-25T10:50:42;99757.63;;;9.90;51.96
64644;BME280;51056;50.330;7.914;2024-03-25T10:53:48;99749.38;;;10.11;51.07
64644;BME280;51056;50.330;7.914;2024-03-25T10:56:56;99750.34;;;10.10;49.86
64644;BME280;51056;50.330;7.914;2024-03-25T11:00:04;99752.50;;;9.89;49.92
64644;BME280;51056;50.330;7.914;2024-03-25T11:03:09;99743.84;;;9.60;50.28
64644;BME280;51056;50.330;7.914;2024-03-25T11:06:16;99731.91;;;9.70;49.62
64644;BME280;51056;50.330;7.914;2024-03-25T11:09:24;99725.47;;;9.90;55.72
64644;BME280;51056;50.330;7.914;2024-03-25T11:12:35;99714.50;;;10.12;52.05
64644;BME280;51056;50.330;7.914;2024-03-25T11:15:40;99716.09;;;10.29;52.71
64644;BME280;51056;50.330;7.914;2024-03-25T11:18:53;99705.78;;;10.25;49.61
64644;BME280;51056;50.330;7.914;2024-03-25T11:22:10;99699.19;;;10.34;49.70
64644;BME280;51056;50.330;7.914;2024-03-25T11:25:15;99689.88;;;10.16;47.28
64644;BME280;51056;50.330;7.914;2024-03-25T11:28:26;99685.34;;;10.05;47.88
64644;BME280;51056;50.330;7.914;2024-03-25T11:31:33;99679.13;;;9.79;48.05
64644;BME280;51056;50.330;7.914;2024-03-25T11:34:51;99669.84;;;10.02;48.76
64644;BME280;51056;50.330;7.914;2024-03-25T11:38:04;99657.56;;;10.17;48.40
64644;BME280;51056;50.330;7.914;2024-03-25T11:41:24;99655.75;;;10.59;49.55
64644;BME280;51056;50.330;7.914;2024-03-25T11:44:52;99642.59;;;10.60;46.83
64644;BME280;51056;50.330;7.914;2024-03-25T11:48:08;99640.09;;;10.84;47.38
64644;BME280;51056;50.330;7.914;2024-03-25T11:51:19;99645.47;;;10.56;44.82
64644;BME280;51056;50.330;7.914;2024-03-25T11:54:27;99631.53;;;10.30;44.02
64644;BME280;51056;50.330;7.914;2024-03-25T11:57:39;99621.19;;;10.28;44.28
64644;BME280;51056;50.330;7.914;2024-03-25T12:04:16;99618.94;;;10.75;43.65
64644;BME280;51056;50.330;7.914;2024-03-25T12:07:32;99606.28;;;10.81;42.36
64644;BME280;51056;50.330;7.914;2024-03-25T12:10:40;99609.78;;;10.94;42.09
64644;BME280;51056;50.330;7.914;2024-03-25T12:14:06;99597.13;;;11.01;41.20
64644;BME280;51056;50.330;7.914;2024-03-25T12:17:13;99594.47;;;11.14;42.25
64644;BME280;51056;50.330;7.914;2024-03-25T12:20:21;99589.09;;;11.28;42.99
64644;BME280;51056;50.330;7.914;2024-03-25T12:23:29;99581.69;;;11.22;40.48
64644;BME280;51056;50.330;7.914;2024-03-25T12:26:39;99576.75;;;11.43;40.37
64644;BME280;51056;50.330;7.914;2024-03-25T12:30:01;99563.00;;;11.52;40.55
64644;BME280;51056;50.330;7.914;2024-03-25T12:33:08;99561.03;;;11.67;40.77
64644;BME280;51056;50.330;7.914;2024-03-25T12:36:15;99564.84;;;12.11;39.69
64644;BME280;51056;50.330;7.914;2024-03-25T12:39:22;99552.06;;;12.30;38.57
64644;BME280;51056;50.330;7.914;2024-03-25T12:42:38;99550.03;;;11.99;38.44
64644;BME280;51056;50.330;7.914;2024-03-25T12:45:45;99535.44;;;12.07;37.63
64644;BME280;51056;50.330;7.914;2024-03-25T12:49:00;99523.50;;;12.50;38.25
64644;BME280;51056;50.330;7.914;2024-03-25T12:52:13;99526.63;;;13.00;38.63
64644;BME280;51056;50.330;7.914;2024-03-25T12:55:23;99525.25;;;13.62;38.90
64644;BME280;51056;50.330;7.914;2024-03-25T12:58:42;99518.72;;;13.56;37.49
64644;BME280;51056;50.330;7.914;2024-03-25T13:02:01;99510.75;;;13.79;36.58
64644;BME280;51056;50.330;7.914;2024-03-25T13:05:22;99511.94;;;13.75;36.05
64644;BME280;51056;50.330;7.914;2024-03-25T13:08:35;99498.94;;;13.73;34.67
64644;BME280;51056;50.330;7.914;2024-03-25T13:11:40;99483.59;;;14.31;34.45
64644;BME280;51056;50.330;7.914;2024-03-25T13:14:45;99484.09;;;15.07;32.63
64644;BME280;51056;50.330;7.914;2024-03-25T13:17:50;99479.66;;;15.68;31.35
64644;BME280;51056;50.330;7.914;2024-03-25T13:20:57;99470.44;;;16.11;31.67
64644;BME280;51056;50.330;7.914;2024-03-25T13:24:04;99474.94;;;15.11;31.76
64644;BME280;51056;50.330;7.914;2024-03-25T13:27:10;99462.78;;;16.27;30.20
64644;BME280;51056;50.330;7.914;2024-03-25T13:30:16;99464.16;;;17.33;29.21
64644;BME280;51056;50.330;7.914;2024-03-25T13:33:26;99460.13;;;19.13;26.66
64644;BME280;51056;50.330;7.914;2024-03-25T13:36:31;99449.63;;;19.54;25.31
64644;BME280;51056;50.330;7.914;2024-03-25T13:39:36;99447.34;;;19.67;24.46
64644;BME280;51056;50.330;7.914;2024-03-25T13:42:40;99427.28;;;23.77;20.86
64644;BME280;51056;50.330;7.914;2024-03-25T13:45:48;99427.28;;;25.16;19.61
64644;BME280;51056;50.330;7.914;2024-03-25T13:48:53;99417.69;;;27.70;17.49
64644;BME280;51056;50.330;7.914;2024-03-25T13:52:11;99413.34;;;27.69;16.87
64644;BME280;51056;50.330;7.914;2024-03-25T13:55:16;99404.94;;;26.24;17.95
64644;BME280;51056;50.330;7.914;2024-03-25T13:58:25;99391.25;;;27.98;16.72
64644;BME280;51056;50.330;7.914;2024-03-25T14:01:55;99391.16;;;28.97;16.24
64644;BME280;51056;50.330;7.914;2024-03-25T14:05:02;99379.81;;;29.25;15.81
64644;BME280;51056;50.330;7.914;2024-03-25T14:08:06;99378.84;;;30.44;14.64
64644;BME280;51056;50.330;7.914;2024-03-25T14:11:12;99376.22;;;31.01;14.63
64644;BME280;51056;50.330;7.914;2024-03-25T14:14:20;99357.41;;;31.68;14.76
64644;BME280;51056;50.330;7.914;2024-03-25T14:17:28;99376.63;;;30.41;15.50
64644;BME280;51056;50.330;7.914;2024-03-25T14:20:50;99369.59;;;29.04;16.87
64644;BME280;51056;50.330;7.914;2024-03-25T14:24:04;99356.50;;;29.61;15.79
64644;BME280;51056;50.330;7.914;2024-03-25T14:27:18;99344.28;;;31.26;14.81
64644;BME280;51056;50.330;7.914;2024-03-25T14:30:25;99350.41;;;29.89;16.29
64644;BME280;51056;50.330;7.914;2024-03-25T14:33:29;99338.13;;;31.14;15.40
64644;BME280;51056;50.330;7.914;2024-03-25T14:36:39;99334.78;;;31.07;15.52
64644;BME280;51056;50.330;7.914;2024-03-25T14:39:48;99322.66;;;31.38;15.09
64644;BME280;51056;50.330;7.914;2024-03-25T14:42:53;99321.31;;;31.58;14.90
64644;BME280;51056;50.330;7.914;2024-03-25T14:45:57;99315.34;;;30.36;15.60
64644;BME280;51056;50.330;7.914;2024-03-25T14:49:00;99307.72;;;31.02;15.25
64644;BME280;51056;50.330;7.914;2024-03-25T14:52:05;99302.63;;;30.48;15.39
64644;BME280;51056;50.330;7.914;2024-03-25T14:55:12;99313.84;;;29.58;15.96
64644;BME280;51056;50.330;7.914;2024-03-25T14:58:20;99315.00;;;26.41;18.91
64644;BME280;51056;50.330;7.914;2024-03-25T15:01:30;99296.72;;;28.57;17.02
64644;BME280;51056;50.330;7.914;2024-03-25T15:04:41;99291.81;;;28.17;16.94
64644;BME280;51056;50.330;7.914;2024-03-25T15:07:47;99275.91;;;28.82;16.97
64644;BME280;51056;50.330;7.914;2024-03-25T15:11:36;99262.03;;;27.38;17.12
64644;BME280;51056;50.330;7.914;2024-03-25T15:14:39;99259.47;;;28.23;17.00
64644;BME280;51056;50.330;7.914;2024-03-25T15:17:45;99262.69;;;28.14;17.50
64644;BME280;51056;50.330;7.914;2024-03-25T15:21:03;99261.41;;;28.95;16.37
64644;BME280;51056;50.330;7.914;2024-03-25T15:24:14;99256.03;;;28.53;16.27
64644;BME280;51056;50.330;7.914;2024-03-25T15:27:18;99254.81;;;29.44;15.53
64644;BME280;51056;50.330;7.914;2024-03-25T15:30:28;99246.41;;;28.45;16.05
64644;BME280;51056;50.330;7.914;2024-03-25T15:33:35;99243.13;;;28.25;16.48
64644;BME280;51056;50.330;7.914;2024-03-25T15:36:45;99241.97;;;28.93;16.25
64644;BME280;51056;50.330;7.914;2024-03-25T15:39:54;99240.38;;;28.62;16.32
64644;BME280;51056;50.330;7.914;2024-03-25T15:43:04;99241.31;;;28.37;16.36
64644;BME280;51056;50.330;7.914;2024-03-25T15:46:14;99249.25;;;24.94;19.36
64644;BME280;51056;50.330;7.914;2024-03-25T15:49:31;99245.75;;;24.80;19.55
64644;BME280;51056;50.330;7.914;2024-03-25T15:52:43;99223.75;;;26.29;18.12
64644;BME280;51056;50.330;7.914;2024-03-25T15:56:00;99225.78;;;25.75;17.70
64644;BME280;51056;50.330;7.914;2024-03-25T15:59:12;99209.56;;;27.17;17.51
64644;BME280;51056;50.330;7.914;2024-03-25T16:02:28;99211.13;;;27.00;17.69
64644;BME280;51056;50.330;7.914;2024-03-25T16:05:41;99208.19;;;26.76;17.51
64644;BME280;51056;50.330;7.914;2024-03-25T16:08:45;99213.78;;;25.98;18.58
64644;BME280;51056;50.330;7.914;2024-03-25T16:11:51;99212.50;;;22.74;21.23
64644;BME280;51056;50.330;7.914;2024-03-25T16:14:56;99219.69;;;20.27;24.08
64644;BME280;51056;50.330;7.914;2024-03-25T16:18:03;99214.94;;;19.74;25.28
64644;BME280;51056;50.330;7.914;2024-03-25T16:21:18;99208.66;;;18.28;27.28
64644;BME280;51056;50.330;7.914;2024-03-25T16:24:49;99218.78;;;17.12;28.40
64644;BME280;51056;50.330;7.914;2024-03-25T16:28:18;99202.88;;;20.03;25.79
64644;BME280;51056;50.330;7.914;2024-03-25T16:31:31;99193.97;;;20.58;24.21
64644;BME280;51056;50.330;7.914;2024-03-25T16:34:40;99197.81;;;18.89;26.61
64644;BME280;51056;50.330;7.914;2024-03-25T16:37:51;99204.97;;;17.44;29.07
64644;BME280;51056;50.330;7.914;2024-03-25T16:40:57;99202.91;;;16.86;28.42
64644;BME280;51056;50.330;7.914;2024-03-25T16:44:02;99204.91;;;14.80;30.01
64644;BME280;51056;50.330;7.914;2024-03-25T16:47:07;99211.38;;;14.37;30.44
64644;BME280;51056;50.330;7.914;2024-03-25T16:50:14;99210.56;;;14.36;31.64
64644;BME280;51056;50.330;7.914;2024-03-25T16:53:20;99205.56;;;14.24;31.59
64644;BME280;51056;50.330;7.914;2024-03-25T16:56:26;99205.06;;;13.89;32.17
64644;BME280;51056;50.330;7.914;2024-03-25T16:59:31;99210.94;;;12.99;31.31
64644;BME280;51056;50.330;7.914;2024-03-25T17:02:37;99219.53;;;12.69;31.89
64644;BME280;51056;50.330;7.914;2024-03-25T17:05:50;99207.94;;;12.51;32.18
64644;BME280;51056;50.330;7.914;2024-03-25T17:09:01;99219.50;;;12.37;32.33
64644;BME280;51056;50.330;7.914;2024-03-25T17:12:09;99211.06;;;12.33;37.30
64644;BME280;51056;50.330;7.914;2024-03-25T17:15:13;99219.19;;;12.30;39.08